Time;durP1;ratioP1;P1;durP2;ratioP2;P2;SDS_P1;SDS_P2;PMS_P1;PMS_P2;Temp;Humidity;BMP_temperature;BMP_pressure;BME280_temperature;BME280_humidity;BME280_pressure;Samples;Min_cycle;Max_cycle;Signal;HPM_P1;HPM_P2
2021/11/25 00:00:14;;;;;;;59.60;38.07;;;;;;;;;;767072;180;919312;-68
2021/11/25 00:02:39;;;;;;;57.97;39.80;;;;;;;;;;760396;181;920637;-68
2021/11/25 00:05:06;;;;;;;54.25;37.20;;;;;;;;;;776324;180;920065;-67
2021/11/25 00:07:32;;;;;;;62.00;36.83;;;;;;;;;;764884;183;920940;-68
2021/11/25 00:09:58;;;;;;;59.10;39.20;;;;;;;;;;770582;181;914997;-68
2021/11/25 00:12:24;;;;;;;57.07;39.60;;;;;;;;;;764709;180;917792;-66
2021/11/25 00:14:50;;;;;;;61.43;41.10;;;;;;;;;;781712;176;916463;-68
2021/11/25 00:17:16;;;;;;;61.37;41.23;;;;;;;;;;769742;179;916427;-68
2021/11/25 00:19:41;;;;;;;60.77;36.50;;;;;;;;;;771724;180;918611;-68
2021/11/25 00:22:07;;;;;;;60.27;39.97;;;;;;;;;;776229;180;918741;-67
2021/11/25 00:24:33;;;;;;;59.63;37.73;;;;;;;;;;772233;179;918710;-67
2021/11/25 00:26:59;;;;;;;60.28;37.28;;;;;;;;;;777924;179;919027;-68
2021/11/25 00:29:25;;;;;;;56.60;37.47;;;;;;;;;;777878;180;921928;-67
2021/11/25 00:31:51;;;;;;;56.17;36.40;;;;;;;;;;770897;180;919292;-68
2021/11/25 00:34:17;;;;;;;57.70;38.17;;;;;;;;;;772237;180;960323;-67
2021/11/25 00:36:42;;;;;;;56.40;35.93;;;;;;;;;;764123;180;920249;-68
2021/11/25 00:39:08;;;;;;;58.30;38.50;;;;;;;;;;771827;180;919707;-68
2021/11/25 00:41:34;;;;;;;56.17;37.23;;;;;;;;;;775028;179;917092;-67
2021/11/25 00:44:00;;;;;;;57.37;37.67;;;;;;;;;;769996;179;908716;-67
2021/11/25 00:46:26;;;;;;;55.90;35.90;;;;;;;;;;779470;180;910941;-67
2021/11/25 00:48:52;;;;;;;56.93;37.87;;;;;;;;;;768696;180;1020428;-68
2021/11/25 00:51:18;;;;;;;59.20;39.30;;;;;;;;;;767333;180;914305;-68
2021/11/25 00:53:43;;;;;;;58.67;37.60;;;;;;;;;;773745;180;1006799;-68
2021/11/25 00:56:09;;;;;;;59.90;37.10;;;;;;;;;;763321;180;926711;-68
2021/11/25 00:58:35;;;;;;;54.28;37.88;;;;;;;;;;766511;180;1038773;-68
2021/11/25 01:01:01;;;;;;;59.42;38.47;;;;;;;;;;770291;180;1018477;-68
2021/11/25 01:03:27;;;;;;;55.47;37.40;;;;;;;;;;770992;180;907429;-69
2021/11/25 01:05:53;;;;;;;61.67;39.77;;;;;;;;;;764553;180;919137;-67
2021/11/25 01:08:19;;;;;;;57.10;35.87;;;;;;;;;;768097;180;917553;-67
2021/11/25 01:10:45;;;;;;;59.10;36.70;;;;;;;;;;776117;181;915465;-68
2021/11/25 01:13:10;;;;;;;60.65;36.85;;;;;;;;;;766011;180;919405;-67
2021/11/25 01:15:36;;;;;;;56.63;34.70;;;;;;;;;;771713;180;917820;-69
2021/11/25 01:18:02;;;;;;;50.83;32.63;;;;;;;;;;778703;180;917898;-67
2021/11/25 01:20:28;;;;;;;57.30;33.37;;;;;;;;;;761221;180;918985;-68
2021/11/25 01:22:54;;;;;;;54.43;35.40;;;;;;;;;;762878;180;975434;-68
2021/11/25 01:25:20;;;;;;;52.43;33.90;;;;;;;;;;765876;178;928065;-67
2021/11/25 01:27:46;;;;;;;57.62;35.40;;;;;;;;;;770562;180;917278;-68
2021/11/25 01:30:11;;;;;;;57.20;33.50;;;;;;;;;;759955;180;989709;-68
2021/11/25 01:32:37;;;;;;;52.87;35.63;;;;;;;;;;772023;180;948438;-68
2021/11/25 01:35:03;;;;;;;57.50;35.63;;;;;;;;;;776232;181;967321;-68
2021/11/25 01:37:29;;;;;;;58.00;36.80;;;;;;;;;;768947;179;919251;-68
2021/11/25 01:39:55;;;;;;;61.17;38.50;;;;;;;;;;773575;179;918568;-68
2021/11/25 01:42:21;;;;;;;56.93;35.93;;;;;;;;;;770651;181;919581;-64
2021/11/25 01:44:47;;;;;;;55.05;36.92;;;;;;;;;;771028;177;919990;-68
2021/11/25 01:47:13;;;;;;;61.80;39.40;;;;;;;;;;766633;180;1020895;-68
2021/11/25 01:49:39;;;;;;;63.63;37.28;;;;;;;;;;772944;180;918422;-68
2021/11/25 01:52:05;;;;;;;56.37;35.93;;;;;;;;;;774787;181;918677;-68
2021/11/25 01:54:31;;;;;;;55.83;35.83;;;;;;;;;;768827;180;918928;-68
2021/11/25 01:56:57;;;;;;;62.77;39.47;;;;;;;;;;771909;179;918093;-67
2021/11/25 01:59:23;;;;;;;51.45;35.10;;;;;;;;;;771927;179;918517;-68
2021/11/25 02:01:49;;;;;;;62.07;40.00;;;;;;;;;;768110;180;920272;-68
2021/11/25 02:04:15;;;;;;;63.50;39.50;;;;;;;;;;764778;180;918267;-68
2021/11/25 02:06:40;;;;;;;60.13;37.40;;;;;;;;;;771766;180;918872;-68
2021/11/25 02:09:06;;;;;;;55.47;36.63;;;;;;;;;;774649;180;631413;-68
2021/11/25 02:11:32;;;;;;;54.23;37.93;;;;;;;;;;767218;182;919556;-69
2021/11/25 02:13:58;;;;;;;58.00;35.33;;;;;;;;;;778897;179;919413;-68
2021/11/25 02:16:24;;;;;;;63.03;39.20;;;;;;;;;;770490;180;920347;-68
2021/11/25 02:18:50;;;;;;;56.20;36.50;;;;;;;;;;763280;180;919420;-68
2021/11/25 02:21:15;;;;;;;57.83;35.33;;;;;;;;;;770912;180;918508;-68
2021/11/25 02:23:41;;;;;;;61.03;37.47;;;;;;;;;;768912;181;920192;-68
2021/11/25 02:26:07;;;;;;;57.30;35.43;;;;;;;;;;775050;180;920626;-68
2021/11/25 02:28:33;;;;;;;69.63;38.80;;;;;;;;;;765664;180;918085;-68
2021/11/25 02:30:59;;;;;;;59.90;36.13;;;;;;;;;;773731;179;916604;-68
2021/11/25 02:33:25;;;;;;;52.58;33.95;;;;;;;;;;769817;180;916137;-69
2021/11/25 02:35:51;;;;;;;54.07;33.97;;;;;;;;;;770319;180;920236;-68
2021/11/25 02:38:16;;;;;;;51.80;32.53;;;;;;;;;;779652;176;916220;-68
2021/11/25 02:40:44;;;;;;;52.83;32.20;;;;;;;;;;773603;180;926922;-69
2021/11/25 02:43:10;;;;;;;57.30;35.63;;;;;;;;;;774890;180;914028;-68
2021/11/25 02:45:42;;;;;;;49.07;31.23;;;;;;;;;;772331;180;1020905;-68
2021/11/25 02:48:08;;;;;;;54.47;33.00;;;;;;;;;;776840;180;918551;-67
2021/11/25 02:50:34;;;;;;;54.87;33.47;;;;;;;;;;772551;180;919375;-68
2021/11/25 02:52:59;;;;;;;52.33;31.67;;;;;;;;;;772583;180;919270;-68
2021/11/25 02:55:25;;;;;;;55.60;34.10;;;;;;;;;;775632;180;918636;-68
2021/11/25 02:57:52;;;;;;;54.10;32.60;;;;;;;;;;769354;180;958704;-68
2021/11/25 03:00:29;;;;;;;50.80;32.00;;;;;;;;;;766570;180;919255;-67
2021/11/25 03:02:57;;;;;;;47.37;30.90;;;;;;;;;;770757;179;918618;-68
2021/11/25 03:05:22;;;;;;;51.40;32.20;;;;;;;;;;765116;180;918294;-68
2021/11/25 03:07:48;;;;;;;54.53;33.40;;;;;;;;;;772176;180;918664;-68
2021/11/25 03:10:14;;;;;;;57.33;35.33;;;;;;;;;;768935;180;918488;-68
2021/11/25 03:12:40;;;;;;;50.50;34.97;;;;;;;;;;769656;181;919517;-68
2021/11/25 03:15:06;;;;;;;51.90;33.43;;;;;;;;;;774284;181;919191;-69
2021/11/25 03:17:32;;;;;;;53.87;33.30;;;;;;;;;;765229;181;919089;-69
2021/11/25 03:19:58;;;;;;;51.73;36.27;;;;;;;;;;767342;180;918895;-68
2021/11/25 03:22:24;;;;;;;52.10;32.90;;;;;;;;;;768240;181;1021241;-67
2021/11/25 03:24:50;;;;;;;52.07;33.07;;;;;;;;;;766711;181;918031;-68
2021/11/25 03:27:16;;;;;;;61.53;35.37;;;;;;;;;;765866;181;1020835;-68
2021/11/25 03:29:42;;;;;;;52.97;34.17;;;;;;;;;;767856;180;918815;-66
2021/11/25 03:32:08;;;;;;;63.37;36.90;;;;;;;;;;773806;180;919031;-67
2021/11/25 03:34:34;;;;;;;59.87;33.97;;;;;;;;;;769514;181;919362;-67
2021/11/25 03:36:59;;;;;;;54.93;33.13;;;;;;;;;;770523;180;918317;-68
2021/11/25 03:39:25;;;;;;;52.83;31.00;;;;;;;;;;769417;183;712352;-68
2021/11/25 03:41:51;;;;;;;50.50;32.00;;;;;;;;;;767594;180;918579;-67
2021/11/25 03:44:17;;;;;;;59.73;32.97;;;;;;;;;;769816;180;918014;-68
2021/11/25 03:46:43;;;;;;;55.77;34.00;;;;;;;;;;775113;181;935543;-67
2021/11/25 03:49:09;;;;;;;53.17;32.77;;;;;;;;;;767866;180;931577;-68
2021/11/25 03:51:35;;;;;;;56.93;33.73;;;;;;;;;;768752;180;919036;-68
2021/11/25 03:54:00;;;;;;;51.40;28.67;;;;;;;;;;775949;180;917809;-67
2021/11/25 03:56:26;;;;;;;52.30;30.20;;;;;;;;;;766907;181;920055;-68
2021/11/25 03:58:52;;;;;;;60.90;34.50;;;;;;;;;;768035;180;920900;-68
2021/11/25 04:01:19;;;;;;;84.37;38.47;;;;;;;;;;772421;180;919322;-67
2021/11/25 04:03:44;;;;;;;69.77;37.40;;;;;;;;;;776071;180;918305;-67
2021/11/25 04:06:10;;;;;;;68.18;38.33;;;;;;;;;;768177;180;918773;-67
2021/11/25 04:08:35;;;;;;;77.17;38.33;;;;;;;;;;769714;179;919718;-67
2021/11/25 04:11:01;;;;;;;86.70;37.60;;;;;;;;;;772358;181;918570;-67
2021/11/25 04:13:27;;;;;;;74.35;37.88;;;;;;;;;;767941;181;918519;-66
2021/11/25 04:15:53;;;;;;;80.80;39.57;;;;;;;;;;763513;180;918217;-67
2021/11/25 04:18:19;;;;;;;80.87;39.70;;;;;;;;;;771276;180;918690;-67
2021/11/25 04:20:45;;;;;;;85.80;37.63;;;;;;;;;;776066;180;919380;-67
2021/11/25 04:23:11;;;;;;;77.73;37.50;;;;;;;;;;769920;180;919381;-67
2021/11/25 04:25:37;;;;;;;83.10;42.00;;;;;;;;;;766993;180;918523;-68
2021/11/25 04:28:03;;;;;;;74.10;36.73;;;;;;;;;;775057;180;915721;-67
2021/11/25 04:35:44;;;;;;;57.53;29.40;;;;;;;;;;773540;179;915286;-67
2021/11/25 04:38:09;;;;;;;55.95;29.63;;;;;;;;;;769701;181;915043;-69
2021/11/25 04:40:36;;;;;;;60.27;29.97;;;;;;;;;;772045;180;915551;-69
2021/11/25 04:43:02;;;;;;;57.97;28.97;;;;;;;;;;764021;181;919015;-69
2021/11/25 04:45:28;;;;;;;54.57;29.13;;;;;;;;;;765886;181;918957;-69
2021/11/25 04:47:53;;;;;;;46.93;27.03;;;;;;;;;;775010;180;918777;-69
2021/11/25 04:50:20;;;;;;;44.23;24.10;;;;;;;;;;764934;180;917879;-69
2021/11/25 04:52:45;;;;;;;43.93;25.23;;;;;;;;;;772332;180;919517;-68
2021/11/25 04:55:11;;;;;;;45.07;23.73;;;;;;;;;;770983;180;922671;-71
2021/11/25 04:57:37;;;;;;;44.50;25.80;;;;;;;;;;765366;181;918935;-70
2021/11/25 05:00:03;;;;;;;42.97;24.13;;;;;;;;;;775707;179;920170;-70
2021/11/25 05:02:29;;;;;;;50.77;25.83;;;;;;;;;;772670;180;950752;-70
2021/11/25 05:04:55;;;;;;;36.97;22.07;;;;;;;;;;771035;180;916204;-70
2021/11/25 05:07:20;;;;;;;39.20;19.27;;;;;;;;;;765063;180;916127;-71
2021/11/25 05:09:46;;;;;;;39.47;25.00;;;;;;;;;;769548;180;919033;-71
2021/11/25 05:12:12;;;;;;;42.17;25.10;;;;;;;;;;773707;180;918420;-71
2021/11/25 05:14:38;;;;;;;38.90;22.87;;;;;;;;;;769925;180;920041;-70
2021/11/25 05:17:04;;;;;;;44.50;25.20;;;;;;;;;;763270;181;920770;-71
2021/11/25 05:19:31;;;;;;;46.13;22.87;;;;;;;;;;773681;180;919305;-70
2021/11/25 05:21:55;;;;;;;39.60;25.20;;;;;;;;;;772741;179;917050;-69
2021/11/25 05:24:21;;;;;;;42.93;22.73;;;;;;;;;;764204;179;917865;-69
2021/11/25 05:26:48;;;;;;;41.53;22.17;;;;;;;;;;773632;180;918063;-70
2021/11/25 05:29:13;;;;;;;41.57;24.43;;;;;;;;;;746122;180;4554413;-68
2021/11/25 05:31:39;;;;;;;43.43;24.10;;;;;;;;;;765374;180;918886;-71
2021/11/25 05:34:05;;;;;;;38.38;22.27;;;;;;;;;;768765;181;914372;-67
2021/11/25 05:36:31;;;;;;;43.50;23.77;;;;;;;;;;771005;181;633132;-68
2021/11/25 05:38:56;;;;;;;39.93;22.67;;;;;;;;;;776524;180;653087;-68
2021/11/25 05:41:22;;;;;;;37.10;22.37;;;;;;;;;;770054;180;919771;-67
2021/11/25 05:43:48;;;;;;;44.97;24.77;;;;;;;;;;775803;180;920001;-67
2021/11/25 05:46:14;;;;;;;44.97;24.53;;;;;;;;;;764176;180;1442634;-67
2021/11/25 05:48:40;;;;;;;40.57;24.13;;;;;;;;;;768680;180;919000;-68
2021/11/25 05:51:06;;;;;;;43.70;25.10;;;;;;;;;;774094;180;919573;-66
2021/11/25 05:53:31;;;;;;;42.23;25.43;;;;;;;;;;771958;179;914175;-67
2021/11/25 05:55:57;;;;;;;37.67;21.90;;;;;;;;;;768180;181;624610;-66
2021/11/25 05:58:23;;;;;;;43.17;24.20;;;;;;;;;;774739;180;626417;-66
2021/11/25 06:00:49;;;;;;;43.27;23.87;;;;;;;;;;774820;180;620090;-66
2021/11/25 06:03:15;;;;;;;40.37;24.77;;;;;;;;;;768397;180;1592884;-65
2021/11/25 06:05:41;;;;;;;41.00;24.07;;;;;;;;;;772165;180;916888;-65
2021/11/25 06:08:07;;;;;;;38.03;21.90;;;;;;;;;;776864;179;915021;-65
2021/11/25 06:10:32;;;;;;;38.90;23.30;;;;;;;;;;779011;178;915943;-65
2021/11/25 06:12:58;;;;;;;41.13;24.20;;;;;;;;;;773927;180;920361;-66
2021/11/25 06:15:24;;;;;;;43.47;25.07;;;;;;;;;;777988;179;918747;-64
2021/11/25 06:17:50;;;;;;;45.80;26.50;;;;;;;;;;772158;180;919871;-65
2021/11/25 06:20:16;;;;;;;35.10;20.53;;;;;;;;;;772450;180;921453;-65
2021/11/25 06:22:42;;;;;;;41.40;23.13;;;;;;;;;;779276;179;918844;-65
2021/11/25 06:25:08;;;;;;;40.75;23.65;;;;;;;;;;769099;180;919382;-66
2021/11/25 06:27:34;;;;;;;48.00;24.07;;;;;;;;;;767993;180;918652;-65
2021/11/25 06:30:00;;;;;;;39.17;21.57;;;;;;;;;;772324;179;919747;-64
2021/11/25 06:32:26;;;;;;;40.90;20.63;;;;;;;;;;770175;181;919651;-64
2021/11/25 06:34:52;;;;;;;37.50;22.30;;;;;;;;;;767720;181;918718;-66
2021/11/25 06:37:17;;;;;;;38.17;20.77;;;;;;;;;;769739;181;919733;-65
2021/11/25 06:39:43;;;;;;;38.50;19.87;;;;;;;;;;777095;180;919192;-64
2021/11/25 06:42:09;;;;;;;39.07;20.37;;;;;;;;;;763137;182;922967;-65
2021/11/25 06:44:35;;;;;;;37.10;21.03;;;;;;;;;;763243;180;918922;-64
2021/11/25 06:47:01;;;;;;;37.28;20.25;;;;;;;;;;770320;180;918814;-65
2021/11/25 06:49:28;;;;;;;33.93;19.40;;;;;;;;;;770185;180;918072;-65
2021/11/25 06:51:53;;;;;;;37.97;21.93;;;;;;;;;;772227;180;919126;-65
2021/11/25 06:54:19;;;;;;;34.10;20.27;;;;;;;;;;768286;180;636044;-64
2021/11/25 06:56:45;;;;;;;38.23;21.70;;;;;;;;;;778717;179;627362;-64
2021/11/25 06:59:11;;;;;;;36.60;18.70;;;;;;;;;;773140;180;639759;-63
2021/11/25 07:01:38;;;;;;;36.10;20.30;;;;;;;;;;772494;181;643514;-65
2021/11/25 07:04:03;;;;;;;36.57;19.60;;;;;;;;;;780435;180;623073;-65
2021/11/25 07:06:29;;;;;;;27.97;16.97;;;;;;;;;;773007;179;639126;-65
2021/11/25 07:08:54;;;;;;;36.63;20.37;;;;;;;;;;773191;180;617477;-64
2021/11/25 07:11:20;;;;;;;32.13;18.10;;;;;;;;;;775748;180;615811;-65
2021/11/25 07:13:46;;;;;;;27.03;17.03;;;;;;;;;;772135;180;624779;-64
2021/11/25 07:16:12;;;;;;;31.93;18.63;;;;;;;;;;777043;180;621152;-64
2021/11/25 07:18:38;;;;;;;33.43;17.83;;;;;;;;;;773289;180;1019533;-65
2021/11/25 07:21:04;;;;;;;34.20;20.37;;;;;;;;;;779235;178;625619;-64
2021/11/25 07:23:30;;;;;;;40.23;21.40;;;;;;;;;;764382;180;919596;-64
2021/11/25 07:25:55;;;;;;;30.27;18.10;;;;;;;;;;769288;180;918919;-63
2021/11/25 07:28:21;;;;;;;32.40;19.30;;;;;;;;;;776145;180;918974;-64
2021/11/25 07:30:47;;;;;;;38.57;21.30;;;;;;;;;;771371;179;919928;-65
2021/11/25 07:33:13;;;;;;;30.77;17.60;;;;;;;;;;771221;179;919286;-66
2021/11/25 07:35:43;;;;;;;31.63;19.67;;;;;;;;;;775780;181;617682;-64
2021/11/25 07:38:05;;;;;;;26.63;16.70;;;;;;;;;;771921;180;630184;-64
2021/11/25 07:40:31;;;;;;;33.37;18.60;;;;;;;;;;768259;180;919191;-65
2021/11/25 07:42:56;;;;;;;32.03;18.83;;;;;;;;;;775798;180;918307;-65
2021/11/25 07:45:23;;;;;;;33.17;18.07;;;;;;;;;;761233;180;918096;-65
2021/11/25 07:47:48;;;;;;;31.67;17.90;;;;;;;;;;771925;181;919079;-64
2021/11/25 07:50:14;;;;;;;34.07;20.20;;;;;;;;;;770504;177;918784;-65
2021/11/25 07:52:40;;;;;;;35.07;17.70;;;;;;;;;;776436;180;617452;-66
2021/11/25 07:55:06;;;;;;;30.90;17.90;;;;;;;;;;772856;181;628368;-65
2021/11/25 07:57:32;;;;;;;24.60;15.63;;;;;;;;;;759231;182;918345;-65
2021/11/25 07:59:58;;;;;;;34.80;19.70;;;;;;;;;;765794;182;917638;-65
2021/11/25 08:02:23;;;;;;;34.67;18.53;;;;;;;;;;760161;184;919131;-65
2021/11/25 08:04:49;;;;;;;35.50;21.13;;;;;;;;;;760821;182;919453;-64
2021/11/25 08:07:15;;;;;;;33.83;18.90;;;;;;;;;;766079;182;919916;-65
2021/11/25 08:09:41;;;;;;;39.20;18.47;;;;;;;;;;767258;180;918889;-64
2021/11/25 08:12:07;;;;;;;35.90;18.03;;;;;;;;;;762326;181;916740;-66
2021/11/25 08:14:33;;;;;;;37.13;20.20;;;;;;;;;;764929;181;917924;-65
2021/11/25 08:16:59;;;;;;;38.23;19.20;;;;;;;;;;774856;180;915993;-65
2021/11/25 08:19:26;;;;;;;31.23;17.20;;;;;;;;;;767526;180;920114;-65
2021/11/25 08:21:52;;;;;;;38.17;19.63;;;;;;;;;;769495;179;920911;-64
2021/11/25 08:24:17;;;;;;;33.07;18.93;;;;;;;;;;766769;180;922507;-65
2021/11/25 08:26:43;;;;;;;36.47;19.50;;;;;;;;;;768268;180;915101;-65
2021/11/25 08:29:09;;;;;;;35.47;18.63;;;;;;;;;;772615;180;916243;-66
2021/11/25 08:31:35;;;;;;;28.70;17.67;;;;;;;;;;773435;180;1017732;-65
2021/11/25 08:34:01;;;;;;;29.13;17.10;;;;;;;;;;772733;179;918915;-63
2021/11/25 08:36:27;;;;;;;28.53;17.63;;;;;;;;;;771002;180;919293;-66
2021/11/25 08:38:52;;;;;;;34.50;19.50;;;;;;;;;;766575;180;1021598;-65
2021/11/25 08:41:18;;;;;;;38.37;17.67;;;;;;;;;;776094;180;918631;-66
2021/11/25 08:43:44;;;;;;;41.83;20.33;;;;;;;;;;768295;180;919620;-65
2021/11/25 08:46:10;;;;;;;46.17;21.07;;;;;;;;;;769219;181;939653;-66
2021/11/25 08:48:36;;;;;;;27.03;16.30;;;;;;;;;;777816;179;919824;-66
2021/11/25 08:51:03;;;;;;;33.50;19.30;;;;;;;;;;767425;180;919411;-66
2021/11/25 08:53:28;;;;;;;30.17;16.57;;;;;;;;;;761508;180;2211177;-66
2021/11/25 08:55:53;;;;;;;33.30;18.23;;;;;;;;;;772064;181;918182;-65
2021/11/25 08:58:19;;;;;;;32.70;18.83;;;;;;;;;;772170;180;918552;-64
2021/11/25 09:00:45;;;;;;;33.47;17.60;;;;;;;;;;771609;180;918766;-64
2021/11/25 09:03:11;;;;;;;30.80;16.47;;;;;;;;;;765392;180;919453;-66
2021/11/25 09:05:37;;;;;;;36.70;18.37;;;;;;;;;;769422;183;919070;-65
2021/11/25 09:08:03;;;;;;;30.00;16.83;;;;;;;;;;767132;179;920876;-66
2021/11/25 09:10:29;;;;;;;38.83;19.02;;;;;;;;;;768919;180;1125736;-66
2021/11/25 09:12:54;;;;;;;24.70;14.30;;;;;;;;;;774308;180;933440;-66
2021/11/25 09:15:20;;;;;;;25.77;14.60;;;;;;;;;;769032;181;918890;-66
2021/11/25 09:17:46;;;;;;;30.23;16.17;;;;;;;;;;764216;181;1009174;-65
2021/11/25 09:20:12;;;;;;;26.00;15.03;;;;;;;;;;777281;180;633405;-65
2021/11/25 09:22:38;;;;;;;26.00;14.20;;;;;;;;;;766762;180;918709;-66
2021/11/25 09:25:04;;;;;;;23.50;13.65;;;;;;;;;;773504;180;918884;-65
2021/11/25 09:27:30;;;;;;;27.40;13.45;;;;;;;;;;770153;180;1020764;-64
2021/11/25 09:29:56;;;;;;;31.20;15.40;;;;;;;;;;782510;179;939556;-66
2021/11/25 09:32:22;;;;;;;24.53;13.53;;;;;;;;;;770825;179;917680;-65
2021/11/25 09:34:48;;;;;;;25.10;14.55;;;;;;;;;;771163;180;918688;-65
2021/11/25 09:37:14;;;;;;;26.50;14.90;;;;;;;;;;775286;179;915690;-66
2021/11/25 09:39:39;;;;;;;27.93;15.43;;;;;;;;;;770366;180;915596;-66
2021/11/25 09:42:05;;;;;;;22.73;14.87;;;;;;;;;;775467;180;913722;-66
2021/11/25 09:44:31;;;;;;;22.97;13.77;;;;;;;;;;776650;178;914331;-64
2021/11/25 09:46:57;;;;;;;28.30;16.10;;;;;;;;;;770787;179;920076;-66
2021/11/25 09:49:24;;;;;;;29.55;15.65;;;;;;;;;;767661;180;917479;-64
2021/11/25 09:51:50;;;;;;;26.02;14.40;;;;;;;;;;776841;180;919374;-64
2021/11/25 09:54:16;;;;;;;25.97;15.10;;;;;;;;;;780821;178;918730;-64
2021/11/25 09:56:42;;;;;;;29.03;15.03;;;;;;;;;;769533;180;920094;-66
2021/11/25 09:59:08;;;;;;;26.30;14.35;;;;;;;;;;767945;181;918751;-66
2021/11/25 10:01:34;;;;;;;24.40;14.30;;;;;;;;;;774860;180;919642;-65
2021/11/25 10:04:00;;;;;;;30.30;18.23;;;;;;;;;;770396;180;948567;-66
2021/11/25 10:06:26;;;;;;;30.97;17.50;;;;;;;;;;768944;180;915867;-65
2021/11/25 10:08:52;;;;;;;27.20;16.73;;;;;;;;;;768670;180;916181;-62
2021/11/25 10:11:19;;;;;;;23.80;13.70;;;;;;;;;;771130;180;855392;-64
2021/11/25 10:13:45;;;;;;;30.80;17.60;;;;;;;;;;769220;180;919092;-66
2021/11/25 10:16:12;;;;;;;32.28;17.50;;;;;;;;;;764709;180;927352;-63
2021/11/25 10:18:36;;;;;;;33.33;17.00;;;;;;;;;;770645;181;919442;-66
2021/11/25 10:21:03;;;;;;;36.63;20.50;;;;;;;;;;765966;180;916887;-65
2021/11/25 10:23:30;;;;;;;33.50;18.43;;;;;;;;;;769624;180;913093;-65
2021/11/25 10:25:56;;;;;;;28.07;17.17;;;;;;;;;;776937;180;917289;-65
2021/11/25 10:28:25;;;;;;;25.77;17.50;;;;;;;;;;773181;180;918691;-65
2021/11/25 10:30:51;;;;;;;30.70;18.40;;;;;;;;;;767055;180;920925;-65
2021/11/25 10:33:17;;;;;;;30.47;17.20;;;;;;;;;;777089;180;619528;-65
2021/11/25 10:35:52;;;;;;;31.53;16.70;;;;;;;;;;771886;181;634856;-65
2021/11/25 10:38:23;;;;;;;30.03;19.00;;;;;;;;;;774319;180;627624;-65
2021/11/25 10:40:35;;;;;;;32.20;18.47;;;;;;;;;;766698;180;916926;-65
2021/11/25 10:43:07;;;;;;;19.83;11.37;;;;;;;;;;773065;181;624458;-65
2021/11/25 10:45:33;;;;;;;32.13;18.33;;;;;;;;;;765128;181;628279;-65
2021/11/25 10:47:58;;;;;;;31.07;18.10;;;;;;;;;;770761;180;1006143;-65
2021/11/25 10:50:24;;;;;;;32.33;16.90;;;;;;;;;;778963;179;630777;-64
2021/11/25 10:52:51;;;;;;;31.77;17.90;;;;;;;;;;768220;182;919487;-65
2021/11/25 10:55:23;;;;;;;26.23;14.70;;;;;;;;;;769045;180;919000;-64
2021/11/25 10:57:53;;;;;;;29.33;16.20;;;;;;;;;;767240;179;919340;-64
2021/11/25 11:00:23;;;;;;;23.20;15.10;;;;;;;;;;778404;179;917403;-66
2021/11/25 11:02:45;;;;;;;29.70;17.70;;;;;;;;;;771386;179;919088;-65
2021/11/25 11:05:11;;;;;;;24.23;16.60;;;;;;;;;;774842;180;917579;-64
2021/11/25 11:07:37;;;;;;;20.37;13.67;;;;;;;;;;763260;180;918556;-64
2021/11/25 11:10:22;;;;;;;23.40;13.60;;;;;;;;;;774494;179;919323;-65
2021/11/25 11:12:59;;;;;;;26.07;14.63;;;;;;;;;;772297;180;919237;-65
2021/11/25 11:15:28;;;;;;;24.50;14.60;;;;;;;;;;771756;180;918322;-65
2021/11/25 11:20:23;;;;;;;25.62;14.25;;;;;;;;;;761580;182;918319;-65
2021/11/25 11:22:50;;;;;;;31.83;16.23;;;;;;;;;;768234;181;919249;-65
2021/11/25 11:25:20;;;;;;;28.37;15.07;;;;;;;;;;767719;181;919218;-65
2021/11/25 11:27:42;;;;;;;28.00;13.80;;;;;;;;;;772598;180;918518;-66
2021/11/25 11:30:08;;;;;;;23.65;13.05;;;;;;;;;;770920;180;918650;-65
2021/11/25 11:32:34;;;;;;;20.13;11.20;;;;;;;;;;771368;180;918739;-65
2021/11/25 11:35:00;;;;;;;23.23;14.50;;;;;;;;;;768716;180;919539;-65
2021/11/25 11:37:26;;;;;;;25.53;14.50;;;;;;;;;;768939;180;918993;-64
2021/11/25 11:39:52;;;;;;;23.20;13.60;;;;;;;;;;770692;181;918869;-64
2021/11/25 11:42:17;;;;;;;21.60;13.93;;;;;;;;;;767669;180;919314;-65
2021/11/25 11:44:45;;;;;;;26.20;14.50;;;;;;;;;;773018;179;998498;-65
2021/11/25 11:47:10;;;;;;;24.83;12.13;;;;;;;;;;764376;180;918052;-64
2021/11/25 11:49:35;;;;;;;20.53;12.37;;;;;;;;;;766856;181;921297;-65
2021/11/25 11:52:04;;;;;;;21.90;13.87;;;;;;;;;;764028;180;919580;-65
2021/11/25 11:54:29;;;;;;;24.73;14.10;;;;;;;;;;765665;180;944967;-65
2021/11/25 11:56:55;;;;;;;24.47;14.27;;;;;;;;;;775420;180;918613;-64
2021/11/25 11:59:21;;;;;;;22.60;13.97;;;;;;;;;;765802;179;918990;-65
2021/11/25 12:01:47;;;;;;;22.40;14.05;;;;;;;;;;767260;180;919358;-64
2021/11/25 12:04:13;;;;;;;28.70;14.70;;;;;;;;;;773614;180;920800;-64
2021/11/25 12:06:47;;;;;;;27.90;15.07;;;;;;;;;;765228;180;919750;-64
2021/11/25 12:09:19;;;;;;;25.30;14.53;;;;;;;;;;765428;179;919486;-65
2021/11/25 12:11:45;;;;;;;26.20;15.37;;;;;;;;;;775236;180;919992;-65
2021/11/25 12:14:17;;;;;;;33.60;15.60;;;;;;;;;;778277;180;918642;-65
2021/11/25 12:16:45;;;;;;;27.97;16.20;;;;;;;;;;775166;180;920393;-65
2021/11/25 12:19:11;;;;;;;27.43;13.50;;;;;;;;;;765007;180;917904;-64
2021/11/25 12:21:38;;;;;;;23.20;14.20;;;;;;;;;;770261;180;919585;-64
2021/11/25 12:24:25;;;;;;;26.30;15.77;;;;;;;;;;773794;180;918192;-65
2021/11/25 12:26:57;;;;;;;30.40;16.33;;;;;;;;;;765872;180;1634808;-65
2021/11/25 12:29:28;;;;;;;28.47;17.00;;;;;;;;;;772167;180;916464;-65
2021/11/25 12:31:56;;;;;;;29.37;17.47;;;;;;;;;;758646;180;919402;-65
2021/11/25 12:34:26;;;;;;;26.80;16.63;;;;;;;;;;766514;181;920523;-65
2021/11/25 12:36:51;;;;;;;32.17;16.83;;;;;;;;;;771091;181;920654;-65
2021/11/25 12:39:34;;;;;;;31.70;18.27;;;;;;;;;;776022;180;919451;-65
2021/11/25 12:42:00;;;;;;;30.93;19.03;;;;;;;;;;777236;180;919053;-65
2021/11/25 12:44:26;;;;;;;27.17;13.90;;;;;;;;;;756009;180;918940;-64
2021/11/25 12:46:52;;;;;;;35.27;18.40;;;;;;;;;;768372;180;918887;-65
2021/11/25 12:49:19;;;;;;;30.42;17.60;;;;;;;;;;776228;180;918356;-64
2021/11/25 12:51:43;;;;;;;35.43;17.57;;;;;;;;;;770561;180;917627;-64
2021/11/25 12:54:13;;;;;;;27.73;16.57;;;;;;;;;;770785;180;918914;-64
2021/11/25 12:56:36;;;;;;;29.20;17.90;;;;;;;;;;775785;180;918274;-65
2021/11/25 12:59:04;;;;;;;32.87;17.67;;;;;;;;;;768363;177;920167;-65
2021/11/25 13:01:31;;;;;;;32.17;19.13;;;;;;;;;;766640;180;920057;-65
2021/11/25 13:03:59;;;;;;;30.42;18.23;;;;;;;;;;766678;180;1150233;-65
2021/11/25 13:06:25;;;;;;;28.50;17.87;;;;;;;;;;772111;179;919003;-65
2021/11/25 13:08:51;;;;;;;30.30;17.90;;;;;;;;;;768392;181;919122;-66
2021/11/25 13:11:19;;;;;;;30.97;17.10;;;;;;;;;;763768;180;919918;-64
2021/11/25 13:13:44;;;;;;;35.23;18.70;;;;;;;;;;766794;180;2076843;-65
2021/11/25 13:16:10;;;;;;;32.40;19.57;;;;;;;;;;770067;181;912017;-64
2021/11/25 13:18:52;;;;;;;36.67;20.85;;;;;;;;;;772095;180;919150;-66
2021/11/25 13:21:20;;;;;;;34.20;18.20;;;;;;;;;;772647;178;919017;-65
2021/11/25 13:23:49;;;;;;;31.90;18.17;;;;;;;;;;768488;180;919269;-66
2021/11/25 13:26:15;;;;;;;37.93;21.20;;;;;;;;;;777820;179;919074;-65
2021/11/25 13:28:41;;;;;;;34.60;20.48;;;;;;;;;;772136;181;918471;-65
2021/11/25 13:31:13;;;;;;;35.13;21.67;;;;;;;;;;769766;180;920739;-64
2021/11/25 13:33:44;;;;;;;39.03;21.13;;;;;;;;;;772269;180;919568;-65
2021/11/25 13:36:10;;;;;;;36.87;20.23;;;;;;;;;;775541;180;619232;-64
2021/11/25 13:38:36;;;;;;;35.10;20.80;;;;;;;;;;771138;180;921696;-64
2021/11/25 13:41:02;;;;;;;37.75;19.30;;;;;;;;;;770742;180;919171;-65
2021/11/25 13:43:28;;;;;;;32.10;20.80;;;;;;;;;;774651;180;917897;-65
2021/11/25 13:45:54;;;;;;;34.27;20.47;;;;;;;;;;773305;180;919287;-65
2021/11/25 13:48:19;;;;;;;32.53;19.67;;;;;;;;;;769370;180;918780;-64
2021/11/25 13:50:45;;;;;;;37.13;22.00;;;;;;;;;;768594;180;918838;-65
2021/11/25 13:53:11;;;;;;;43.70;23.07;;;;;;;;;;778673;180;918857;-65
2021/11/25 13:55:38;;;;;;;32.40;21.57;;;;;;;;;;771054;179;1033274;-65
2021/11/25 13:58:04;;;;;;;36.10;20.33;;;;;;;;;;766272;179;919215;-64
2021/11/25 14:00:31;;;;;;;30.63;19.30;;;;;;;;;;775942;179;918608;-65
2021/11/25 14:03:02;;;;;;;39.50;20.23;;;;;;;;;;761252;179;918618;-65
2021/11/25 14:05:28;;;;;;;35.50;19.90;;;;;;;;;;768025;180;918557;-64